createdAt,value
2022-07-26T00:00:15.047Z,11.84
2022-07-26T00:01:13.202Z,15.88
2022-07-26T00:02:16.639Z,10.76
2022-07-26T00:03:13.553Z,11.12
2022-07-26T00:04:13.521Z,13.68
2022-07-26T00:05:13.755Z,9.16
2022-07-26T00:06:14.054Z,17.32
2022-07-26T00:07:13.296Z,21.96
2022-07-26T00:08:13.334Z,14.88
2022-07-26T00:09:13.301Z,9.60
2022-07-26T00:10:15.027Z,9.80
2022-07-26T00:11:13.115Z,18.72
2022-07-26T00:12:12.959Z,15.56
2022-07-26T00:13:13.311Z,14.48
2022-07-26T00:14:13.556Z,22.48
2022-07-26T00:15:13.492Z,19.12
2022-07-26T00:16:13.839Z,11.20
2022-07-26T00:17:13.372Z,8.08
2022-07-26T00:18:13.810Z,9.72
2022-07-26T00:19:14.163Z,8.52
2022-07-26T00:20:13.257Z,10.12
2022-07-26T00:21:13.588Z,15.96
2022-07-26T00:22:13.811Z,8.12
2022-07-26T00:23:13.707Z,5.04
2022-07-26T00:24:13.694Z,11.64
2022-07-26T00:25:13.727Z,9.68
2022-07-26T00:26:13.909Z,7.52
2022-07-26T00:27:12.808Z,10.16
2022-07-26T00:28:14.120Z,15.44
2022-07-26T00:29:13.228Z,6.92
2022-07-26T00:30:13.120Z,7.92
2022-07-26T00:31:18.892Z,18.96
2022-07-26T00:32:13.133Z,13.32
2022-07-26T00:33:13.223Z,12.20
2022-07-26T00:34:13.618Z,10.24
2022-07-26T00:35:13.660Z,11.68
2022-07-26T00:36:13.575Z,6.68
2022-07-26T00:37:19.783Z,11.56
2022-07-26T00:38:13.277Z,16.04
2022-07-26T00:39:13.214Z,11.64
2022-07-26T00:40:13.413Z,7.92
2022-07-26T00:41:13.554Z,8.08
2022-07-26T00:42:13.906Z,19.28
2022-07-26T00:43:12.837Z,7.88
2022-07-26T00:44:14.101Z,8.60
2022-07-26T00:45:13.022Z,6.04
2022-07-26T00:46:13.144Z,4.00
2022-07-26T00:47:13.220Z,10.96
2022-07-26T00:48:13.649Z,9.84
2022-07-26T00:49:14.136Z,3.88
2022-07-26T00:50:13.068Z,2.68
2022-07-26T00:51:13.247Z,7.56
2022-07-26T00:52:13.394Z,8.96
2022-07-26T00:53:13.680Z,11.80
2022-07-26T00:54:14.247Z,7.36
2022-07-26T00:55:13.377Z,6.56
2022-07-26T00:56:14.125Z,6.48
2022-07-26T00:57:13.169Z,8.80
2022-07-26T00:58:13.159Z,6.28
2022-07-26T00:59:13.490Z,10.36
2022-07-26T01:00:13.804Z,4.56
2022-07-26T01:01:14.155Z,5.88
2022-07-26T01:02:13.318Z,9.00
2022-07-26T01:03:13.728Z,4.52
2022-07-26T01:04:14.180Z,8.84
2022-07-26T01:05:13.480Z,6.96
2022-07-26T01:06:13.824Z,5.84
2022-07-26T01:07:14.763Z,4.40
2022-07-26T01:08:13.719Z,4.04
2022-07-26T01:09:13.896Z,8.32
2022-07-26T01:10:14.179Z,4.70
2022-07-26T01:11:13.695Z,3.12
2022-07-26T01:12:13.722Z,2.96
2022-07-26T01:13:13.901Z,8.56
2022-07-26T01:14:13.101Z,6.88
2022-07-26T01:15:13.063Z,8.32
2022-07-26T01:16:12.990Z,11.08
2022-07-26T01:17:13.100Z,6.92
2022-07-26T01:18:13.177Z,6.12
2022-07-26T01:19:13.163Z,5.88
2022-07-26T01:20:13.306Z,2.40
2022-07-26T01:21:14.246Z,3.60
2022-07-26T01:22:14.833Z,3.64
2022-07-26T01:23:13.397Z,4.28
2022-07-26T01:24:13.594Z,3.68
2022-07-26T01:25:14.908Z,4.80
2022-07-26T01:26:12.736Z,4.96
2022-07-26T01:27:13.427Z,8.88
2022-07-26T01:28:20.120Z,1.44
2022-07-26T01:29:13.803Z,5.28
2022-07-26T01:30:13.976Z,5.36
2022-07-26T01:31:13.010Z,4.84
2022-07-26T01:32:13.318Z,5.72
2022-07-26T01:33:13.649Z,2.76
2022-07-26T01:34:13.580Z,2.84
2022-07-26T01:35:13.720Z,4.48
2022-07-26T01:36:13.817Z,3.96
2022-07-26T01:37:13.811Z,3.60
2022-07-26T01:38:14.014Z,3.92
2022-07-26T01:39:12.971Z,7.92
2022-07-26T01:40:12.895Z,8.60
2022-07-26T01:41:12.924Z,6.20
2022-07-26T01:42:13.140Z,11.76
2022-07-26T01:43:13.443Z,8.52
2022-07-26T01:44:13.792Z,4.92
2022-07-26T01:45:13.774Z,2.08
2022-07-26T01:46:13.850Z,4.64
2022-07-26T01:47:12.874Z,3.80
2022-07-26T01:48:15.179Z,5.64
2022-07-26T01:49:13.370Z,4.88
2022-07-26T01:50:13.556Z,7.08
2022-07-26T01:51:13.661Z,5.24
2022-07-26T01:52:14.425Z,10.20
2022-07-26T01:53:14.200Z,6.92
2022-07-26T01:54:13.289Z,6.80
2022-07-26T01:55:13.585Z,7.08
2022-07-26T01:56:13.736Z,5.88
2022-07-26T01:57:14.184Z,2.28
2022-07-26T01:58:13.165Z,0.92
2022-07-26T01:59:13.625Z,7.04
2022-07-26T02:00:14.016Z,7.68
2022-07-26T02:01:13.055Z,14.12
2022-07-26T02:02:13.219Z,9.24
2022-07-26T02:03:13.678Z,9.04
2022-07-26T02:04:13.797Z,3.76
2022-07-26T02:05:13.804Z,8.12
2022-07-26T02:06:14.113Z,7.00
2022-07-26T02:07:13.536Z,7.08
2022-07-26T02:08:13.903Z,9.68
2022-07-26T02:09:13.171Z,9.16
2022-07-26T02:10:13.270Z,3.80
2022-07-26T02:11:13.666Z,7.96
2022-07-26T02:12:13.911Z,10.64
2022-07-26T02:13:19.145Z,5.80
2022-07-26T02:14:13.039Z,4.68
2022-07-26T02:15:13.323Z,2.60
2022-07-26T02:16:13.396Z,10.28
2022-07-26T02:17:13.702Z,15.48
2022-07-26T02:18:14.553Z,5.36
2022-07-26T02:19:13.888Z,4.32
2022-07-26T02:20:12.840Z,6.84
2022-07-26T02:21:13.868Z,11.08
2022-07-26T02:22:13.909Z,15.44
2022-07-26T02:23:13.064Z,10.24
2022-07-26T02:24:13.502Z,11.56
2022-07-26T02:25:13.594Z,17.72
2022-07-26T02:26:13.564Z,10.20
2022-07-26T02:27:13.540Z,14.04
2022-07-26T02:28:13.475Z,8.84
2022-07-26T02:29:13.429Z,4.68
2022-07-26T02:30:13.316Z,2.44
2022-07-26T02:31:15.424Z,10.40
2022-07-26T02:32:13.746Z,13.00
2022-07-26T02:33:14.047Z,9.20
2022-07-26T02:34:13.333Z,17.56
2022-07-26T02:35:13.627Z,12.84
2022-07-26T02:36:13.994Z,13.60
2022-07-26T02:37:12.816Z,12.76
2022-07-26T02:38:13.894Z,19.76
2022-07-26T02:39:13.154Z,18.88
2022-07-26T02:40:18.532Z,14.48
2022-07-26T02:41:13.426Z,19.92
2022-07-26T02:42:13.415Z,10.56
2022-07-26T02:43:13.435Z,19.64
2022-07-26T02:44:13.273Z,9.20
2022-07-26T02:45:13.298Z,7.96
2022-07-26T02:46:13.460Z,9.36
2022-07-26T02:47:13.998Z,6.96
2022-07-26T02:48:13.054Z,14.44
2022-07-26T02:49:13.865Z,16.04
2022-07-26T02:50:12.830Z,12.60
2022-07-26T02:51:13.743Z,21.16
2022-07-26T02:52:13.870Z,15.08
2022-07-26T02:53:13.843Z,16.40
2022-07-26T02:54:13.913Z,7.00
2022-07-26T02:55:13.098Z,9.08
2022-07-26T02:56:13.042Z,13.60
2022-07-26T02:57:13.580Z,11.76
2022-07-26T02:58:13.755Z,16.72
2022-07-26T02:59:13.622Z,11.44
2022-07-26T03:00:13.885Z,8.16
2022-07-26T03:01:13.231Z,4.16
2022-07-26T03:02:14.140Z,8.40
2022-07-26T03:03:13.365Z,2.48
2022-07-26T03:04:13.417Z,13.64
2022-07-26T03:05:13.597Z,17.36
2022-07-26T03:06:13.585Z,15.60
2022-07-26T03:07:14.077Z,16.60
2022-07-26T03:08:13.094Z,26.28
2022-07-26T03:09:13.224Z,7.08
2022-07-26T03:10:13.132Z,9.28
2022-07-26T03:11:13.200Z,13.80
2022-07-26T03:12:13.500Z,8.96
2022-07-26T03:13:18.711Z,13.80
2022-07-26T03:14:13.742Z,15.92
2022-07-26T03:15:15.206Z,17.96
2022-07-26T03:16:13.470Z,9.40
2022-07-26T03:17:13.534Z,5.96
2022-07-26T03:18:13.541Z,1.20
2022-07-26T03:19:13.753Z,6.40
2022-07-26T03:20:13.831Z,1.68
2022-07-26T03:21:13.869Z,7.12
2022-07-26T03:22:13.846Z,15.04
2022-07-26T03:23:13.762Z,11.72
2022-07-26T03:24:13.803Z,15.60
2022-07-26T03:25:13.792Z,24.64
2022-07-26T03:26:14.226Z,25.08
2022-07-26T03:27:13.237Z,12.56
2022-07-26T03:28:17.466Z,6.24
2022-07-26T03:29:13.242Z,18.12
2022-07-26T03:30:13.311Z,22.00
2022-07-26T03:31:13.441Z,23.52
2022-07-26T03:32:13.707Z,11.12
2022-07-26T03:33:13.795Z,9.76
2022-07-26T03:34:14.007Z,5.96
2022-07-26T03:35:13.174Z,4.52
2022-07-26T03:36:15.777Z,22.28
2022-07-26T03:37:13.465Z,13.80
2022-07-26T03:38:13.446Z,12.80
2022-07-26T03:39:13.473Z,7.28
2022-07-26T03:40:13.377Z,10.28
2022-07-26T03:41:13.607Z,15.28
2022-07-26T03:42:12.894Z,9.24
2022-07-26T03:43:13.219Z,15.20
2022-07-26T03:44:13.514Z,14.20
2022-07-26T03:45:13.479Z,11.48
2022-07-26T03:46:13.966Z,19.20
2022-07-26T03:47:13.580Z,13.08
2022-07-26T03:48:13.530Z,6.96
2022-07-26T03:49:17.014Z,3.80
2022-07-26T03:50:13.941Z,8.48
2022-07-26T03:51:13.034Z,9.84
2022-07-26T03:52:12.976Z,13.32
2022-07-26T03:53:13.459Z,12.96
2022-07-26T03:54:13.602Z,15.36
2022-07-26T03:55:13.953Z,14.80
2022-07-26T03:56:12.943Z,9.68
2022-07-26T03:57:13.792Z,19.44
2022-07-26T03:58:14.215Z,15.68
2022-07-26T03:59:13.225Z,6.68
2022-07-26T04:00:13.377Z,14.32
2022-07-26T04:01:13.428Z,9.16
2022-07-26T04:02:13.585Z,10.84
2022-07-26T04:03:13.712Z,9.20
2022-07-26T04:04:14.244Z,10.36
2022-07-26T04:05:13.535Z,6.36
2022-07-26T04:06:13.561Z,9.72
2022-07-26T04:07:13.553Z,8.16
2022-07-26T04:08:12.993Z,9.00
2022-07-26T04:09:13.053Z,7.56
2022-07-26T04:10:12.974Z,8.52
2022-07-26T04:11:13.061Z,11.40
2022-07-26T04:12:13.438Z,9.16
2022-07-26T04:13:13.873Z,9.40
2022-07-26T04:14:13.814Z,20.00
2022-07-26T04:15:14.128Z,9.32
2022-07-26T04:16:13.514Z,7.48
2022-07-26T04:17:13.690Z,14.36
2022-07-26T04:18:14.000Z,5.60
2022-07-26T04:19:13.037Z,5.28
2022-07-26T04:20:13.080Z,5.28
2022-07-26T04:21:13.024Z,5.64
2022-07-26T04:22:12.907Z,5.88
2022-07-26T04:23:13.119Z,8.36
2022-07-26T04:24:13.399Z,8.00
2022-07-26T04:25:13.313Z,9.60
2022-07-26T04:26:13.486Z,7.12
2022-07-26T04:27:13.799Z,5.64
2022-07-26T04:28:14.070Z,5.72
2022-07-26T04:29:13.488Z,5.68
2022-07-26T04:30:15.382Z,5.20
2022-07-26T04:31:14.199Z,7.08
2022-07-26T04:32:13.845Z,8.88
2022-07-26T04:33:13.978Z,6.48
2022-07-26T04:34:13.036Z,10.00
2022-07-26T04:35:12.993Z,4.24
2022-07-26T04:36:12.844Z,3.96
2022-07-26T04:37:14.001Z,5.84
2022-07-26T04:38:12.829Z,7.32
2022-07-26T04:39:13.941Z,5.84
2022-07-26T04:40:12.943Z,4.04
2022-07-26T04:41:13.372Z,8.60
2022-07-26T04:42:13.385Z,6.92
2022-07-26T04:43:18.653Z,11.20
2022-07-26T04:44:13.809Z,15.20
2022-07-26T04:45:13.812Z,10.24
2022-07-26T04:46:13.808Z,13.32
2022-07-26T04:47:13.747Z,10.64
2022-07-26T04:48:13.189Z,13.80
2022-07-26T04:49:13.288Z,11.08
2022-07-26T04:50:13.655Z,12.52
2022-07-26T04:51:13.566Z,9.92
2022-07-26T04:52:13.494Z,10.44
2022-07-26T04:53:13.467Z,7.28
2022-07-26T04:54:13.476Z,10.96
2022-07-26T04:55:13.589Z,12.40
2022-07-26T04:56:13.669Z,10.36
2022-07-26T04:57:13.676Z,6.76
2022-07-26T04:58:13.809Z,7.28
2022-07-26T04:59:16.198Z,12.08
2022-07-26T05:00:22.511Z,3.96
2022-07-26T05:01:13.570Z,6.40
2022-07-26T05:02:14.599Z,4.48
2022-07-26T05:03:13.946Z,5.60
2022-07-26T05:04:13.271Z,5.56
2022-07-26T05:05:13.171Z,2.80
2022-07-26T05:06:13.621Z,4.80
2022-07-26T05:07:13.554Z,4.32
2022-07-26T05:08:13.508Z,7.40
2022-07-26T05:09:13.577Z,6.92
2022-07-26T05:10:13.761Z,7.00
2022-07-26T05:11:13.931Z,3.56
2022-07-26T05:12:13.099Z,1.96
2022-07-26T05:13:13.170Z,5.04
2022-07-26T05:14:13.714Z,3.64
2022-07-26T05:15:14.345Z,2.24
2022-07-26T05:16:13.517Z,0.72
2022-07-26T05:17:13.576Z,1.40
2022-07-26T05:18:13.587Z,4.40
2022-07-26T05:19:13.714Z,4.40
2022-07-26T05:20:14.054Z,7.68
2022-07-26T05:21:13.133Z,16.32
2022-07-26T05:22:14.572Z,14.76
2022-07-26T05:23:13.501Z,5.40
2022-07-26T05:24:13.753Z,6.80
2022-07-26T05:25:13.674Z,1.64
2022-07-26T05:26:13.828Z,5.72
2022-07-26T05:27:13.917Z,14.24
2022-07-26T05:28:12.926Z,7.16
2022-07-26T05:29:12.929Z,6.92
2022-07-26T05:30:12.919Z,8.04
2022-07-26T05:31:13.374Z,6.24
2022-07-26T05:32:13.633Z,3.04
2022-07-26T05:33:16.434Z,6.04
2022-07-26T05:34:14.046Z,10.28
2022-07-26T05:35:13.296Z,7.04
2022-07-26T05:36:13.331Z,5.08
2022-07-26T05:37:13.246Z,7.64
2022-07-26T05:38:13.779Z,9.96
2022-07-26T05:39:16.066Z,4.96
2022-07-26T05:40:13.587Z,7.20
2022-07-26T05:41:13.499Z,8.24
2022-07-26T05:42:13.487Z,6.12
2022-07-26T05:43:13.864Z,7.68
2022-07-26T05:44:14.114Z,9.56
2022-07-26T05:45:13.401Z,6.84
2022-07-26T05:46:13.639Z,7.64
2022-07-26T05:47:14.854Z,16.12
2022-07-26T05:48:13.685Z,9.00
2022-07-26T05:49:13.869Z,8.60
2022-07-26T05:50:13.299Z,9.00
2022-07-26T05:51:13.510Z,8.84
2022-07-26T05:52:15.032Z,13.16
2022-07-26T05:53:13.120Z,18.96
2022-07-26T05:54:13.238Z,13.20
2022-07-26T05:55:13.299Z,8.64
2022-07-26T05:56:13.333Z,4.04
2022-07-26T05:57:13.261Z,5.08
2022-07-26T05:58:13.299Z,8.28
2022-07-26T05:59:13.309Z,9.72
2022-07-26T06:00:13.337Z,3.60
2022-07-26T06:01:13.444Z,5.96
2022-07-26T06:02:13.641Z,6.64
2022-07-26T06:03:13.831Z,1.60
2022-07-26T06:04:14.099Z,3.16
2022-07-26T06:05:13.091Z,4.48
2022-07-26T06:06:13.053Z,5.28
2022-07-26T06:07:13.111Z,9.80
2022-07-26T06:08:13.198Z,5.88
2022-07-26T06:09:13.220Z,8.56
2022-07-26T06:10:13.421Z,4.40
2022-07-26T06:11:13.380Z,3.28
2022-07-26T06:12:13.459Z,3.76
2022-07-26T06:13:13.487Z,4.28
2022-07-26T06:14:14.014Z,8.24
2022-07-26T06:15:15.415Z,6.68
2022-07-26T06:16:13.123Z,8.40
2022-07-26T06:17:14.843Z,9.28
2022-07-26T06:18:14.152Z,16.00
2022-07-26T06:19:13.505Z,18.36
2022-07-26T06:20:13.597Z,19.12
2022-07-26T06:21:13.825Z,12.68
2022-07-26T06:22:13.841Z,12.72
2022-07-26T06:23:12.875Z,8.64
2022-07-26T06:24:14.239Z,5.48
2022-07-26T06:25:13.563Z,2.72
2022-07-26T06:26:13.744Z,5.24
2022-07-26T06:27:13.916Z,10.52
2022-07-26T06:28:13.355Z,13.36
2022-07-26T06:29:13.605Z,11.84
2022-07-26T06:30:13.863Z,12.00
2022-07-26T06:31:14.063Z,16.44
2022-07-26T06:32:13.301Z,18.68
2022-07-26T06:33:13.301Z,23.16
2022-07-26T06:34:13.234Z,25.56
2022-07-26T06:35:13.494Z,22.24
2022-07-26T06:36:13.758Z,20.60
2022-07-26T06:37:14.151Z,15.80
2022-07-26T06:38:13.390Z,13.64
2022-07-26T06:39:18.396Z,9.24
2022-07-26T06:40:13.802Z,9.24
2022-07-26T06:41:13.754Z,6.92
2022-07-26T06:42:13.960Z,11.12
2022-07-26T06:43:13.066Z,8.36
2022-07-26T06:44:13.383Z,3.60
2022-07-26T06:45:13.362Z,6.16
2022-07-26T06:46:13.566Z,12.68
2022-07-26T06:47:13.618Z,19.44
2022-07-26T06:48:13.806Z,13.76
2022-07-26T06:49:14.258Z,10.52
2022-07-26T06:50:13.437Z,8.84
2022-07-26T06:51:13.531Z,20.76
2022-07-26T06:52:13.975Z,10.44
2022-07-26T06:53:13.389Z,14.60
2022-07-26T06:54:13.343Z,17.32
2022-07-26T06:55:13.256Z,9.16
2022-07-26T06:56:13.307Z,6.04
2022-07-26T06:57:13.853Z,3.16
2022-07-26T06:58:13.790Z,5.40
2022-07-26T06:59:13.794Z,3.72
2022-07-26T07:00:14.006Z,4.92
2022-07-26T07:01:13.267Z,8.96
2022-07-26T07:02:13.497Z,12.00
2022-07-26T07:03:13.452Z,9.84
2022-07-26T07:04:13.923Z,4.68
2022-07-26T07:05:13.143Z,8.68
2022-07-26T07:06:13.514Z,5.48
2022-07-26T07:07:13.645Z,11.56
2022-07-26T07:08:13.621Z,5.84
2022-07-26T07:09:13.672Z,8.92
2022-07-26T07:10:12.916Z,8.00
2022-07-26T07:11:14.384Z,6.88
2022-07-26T07:12:14.630Z,12.08
2022-07-26T07:13:14.026Z,8.44
2022-07-26T07:14:12.995Z,6.52
2022-07-26T07:15:12.884Z,5.84
2022-07-26T07:16:13.414Z,6.28
2022-07-26T07:17:20.319Z,2.80
2022-07-26T07:18:13.488Z,3.12
2022-07-26T07:19:13.757Z,4.76
2022-07-26T07:20:14.047Z,8.56
2022-07-26T07:21:13.406Z,9.60
2022-07-26T07:22:13.411Z,7.28
2022-07-26T07:23:13.522Z,4.88
2022-07-26T07:24:13.427Z,7.72
2022-07-26T07:25:14.720Z,7.04
2022-07-26T07:26:12.920Z,9.32
2022-07-26T07:27:13.239Z,18.48
2022-07-26T07:28:14.025Z,18.68
2022-07-26T07:29:12.913Z,11.68
2022-07-26T07:30:12.996Z,19.92
2022-07-26T07:31:13.518Z,32.64
2022-07-26T07:32:18.123Z,19.40
2022-07-26T07:33:22.580Z,13.16
2022-07-26T07:34:14.923Z,9.00
2022-07-26T07:35:13.220Z,12.12
2022-07-26T07:36:13.539Z,8.04
2022-07-26T07:37:13.657Z,8.48
2022-07-26T07:38:14.132Z,8.36
2022-07-26T07:39:17.091Z,6.40
2022-07-26T07:40:13.669Z,10.44
2022-07-26T07:41:13.687Z,13.00
2022-07-26T07:42:13.645Z,11.32
2022-07-26T07:43:13.793Z,11.76
2022-07-26T07:44:14.013Z,7.40
2022-07-26T07:45:13.129Z,10.56
2022-07-26T07:46:13.620Z,10.76
2022-07-26T07:47:13.782Z,12.16
2022-07-26T07:48:14.000Z,13.72
2022-07-26T07:49:13.439Z,12.60
2022-07-26T07:50:13.882Z,6.16
2022-07-26T07:51:12.897Z,6.96
2022-07-26T07:52:12.941Z,5.00
2022-07-26T07:53:12.949Z,6.20
2022-07-26T07:54:12.936Z,7.68
2022-07-26T07:55:36.715Z,11.00
2022-07-26T07:56:13.180Z,9.84
2022-07-26T07:57:13.785Z,8.40
2022-07-26T07:58:13.097Z,10.64
2022-07-26T07:59:13.673Z,16.08
2022-07-26T08:00:13.879Z,19.64
2022-07-26T08:01:13.345Z,17.52
2022-07-26T08:02:13.389Z,20.20
2022-07-26T08:03:13.766Z,10.80
2022-07-26T08:04:14.227Z,10.24
2022-07-26T08:05:14.179Z,20.36
2022-07-26T08:06:13.300Z,26.88
2022-07-26T08:07:13.521Z,19.24
2022-07-26T08:08:12.880Z,17.88
2022-07-26T08:09:13.614Z,7.92
2022-07-26T08:10:13.847Z,16.08
2022-07-26T08:11:14.285Z,13.48
2022-07-26T08:12:13.100Z,14.76
2022-07-26T08:13:13.668Z,31.20
2022-07-26T08:14:13.679Z,32.68
2022-07-26T08:15:13.725Z,22.56
2022-07-26T08:16:14.488Z,24.36
2022-07-26T08:17:13.385Z,15.92
2022-07-26T08:18:15.473Z,20.16
2022-07-26T08:19:15.718Z,16.04
2022-07-26T08:20:15.954Z,16.00
2022-07-26T08:21:13.416Z,17.12
2022-07-26T08:22:14.156Z,18.24
2022-07-26T08:23:13.301Z,27.80
2022-07-26T08:24:13.636Z,19.72
2022-07-26T08:25:13.657Z,15.20
2022-07-26T08:26:13.883Z,12.28
2022-07-26T08:27:13.916Z,19.56
2022-07-26T08:28:30.745Z,22.48
2022-07-26T08:29:14.098Z,8.24
2022-07-26T08:30:13.476Z,21.20
2022-07-26T08:31:13.607Z,18.52
2022-07-26T08:32:13.615Z,25.20
2022-07-26T08:33:13.605Z,36.88
2022-07-26T08:34:14.026Z,28.04
2022-07-26T08:35:17.253Z,32.04
2022-07-26T08:36:13.473Z,23.84
2022-07-26T08:37:17.452Z,20.68
2022-07-26T08:38:13.400Z,17.64
2022-07-26T08:39:13.579Z,25.88
2022-07-26T08:40:13.491Z,14.48
2022-07-26T08:41:13.531Z,29.48
2022-07-26T08:42:13.461Z,29.16
2022-07-26T08:43:13.409Z,24.36
2022-07-26T08:44:13.459Z,18.96
2022-07-26T08:45:13.546Z,8.56
2022-07-26T08:46:14.326Z,16.40
2022-07-26T08:47:13.905Z,12.24
2022-07-26T08:48:17.758Z,12.72
2022-07-26T08:49:14.017Z,25.00
2022-07-26T08:50:13.264Z,16.00
2022-07-26T08:51:13.230Z,14.56
2022-07-26T08:52:13.343Z,13.00
2022-07-26T08:53:13.832Z,20.80
2022-07-26T08:54:14.358Z,22.96
2022-07-26T08:55:13.758Z,26.32
2022-07-26T08:56:13.745Z,22.16
2022-07-26T08:57:13.824Z,17.76
2022-07-26T08:58:13.928Z,22.48
2022-07-26T08:59:18.790Z,27.28
2022-07-26T09:00:13.458Z,18.12
2022-07-26T09:01:13.900Z,15.76
2022-07-26T09:02:13.258Z,19.00
2022-07-26T09:03:13.136Z,21.96
2022-07-26T09:04:13.768Z,24.92
2022-07-26T09:05:13.510Z,23.16
2022-07-26T09:06:13.678Z,22.48
2022-07-26T09:07:14.155Z,30.92
2022-07-26T09:08:13.228Z,28.48
2022-07-26T09:09:13.209Z,20.32
2022-07-26T09:10:13.136Z,28.56
2022-07-26T09:11:13.255Z,19.52
2022-07-26T09:12:13.416Z,28.24
2022-07-26T09:13:13.617Z,18.32
2022-07-26T09:14:13.813Z,15.88
2022-07-26T09:15:13.688Z,17.84
2022-07-26T09:16:13.716Z,25.24
2022-07-26T09:17:14.021Z,14.08
2022-07-26T09:18:13.022Z,19.32
2022-07-26T09:19:13.475Z,18.52
2022-07-26T09:20:13.407Z,19.44
2022-07-26T09:21:13.354Z,14.52
2022-07-26T09:22:13.704Z,15.56
2022-07-26T09:23:13.866Z,24.20
2022-07-26T09:24:13.812Z,12.16
2022-07-26T09:25:13.740Z,17.12
2022-07-26T09:26:13.703Z,19.84
2022-07-26T09:27:15.085Z,15.60
2022-07-26T09:28:13.092Z,12.44
2022-07-26T09:29:13.906Z,11.48
2022-07-26T09:30:13.245Z,8.00
2022-07-26T09:31:13.192Z,5.24
2022-07-26T09:32:15.354Z,9.68
2022-07-26T09:33:13.421Z,6.44
2022-07-26T09:34:13.870Z,16.12
2022-07-26T09:35:45.498Z,17.49
2022-07-26T09:36:14.024Z,21.56
2022-07-26T09:37:13.155Z,11.24
2022-07-26T09:38:13.052Z,9.96
2022-07-26T09:39:13.373Z,16.20
2022-07-26T09:40:13.655Z,17.08
2022-07-26T09:41:13.601Z,16.88
2022-07-26T09:42:27.482Z,17.76
2022-07-26T09:43:15.656Z,16.28
2022-07-26T09:44:13.620Z,26.00
2022-07-26T09:45:13.180Z,15.39
2022-07-26T09:46:13.195Z,14.04
2022-07-26T09:47:13.225Z,19.44
2022-07-26T09:48:13.343Z,15.28
2022-07-26T09:49:13.493Z,12.60
2022-07-26T09:50:14.030Z,26.60
2022-07-26T09:51:13.043Z,19.16
2022-07-26T09:52:13.167Z,14.60
2022-07-26T09:53:13.641Z,22.72
2022-07-26T09:54:14.814Z,14.44
2022-07-26T09:55:13.552Z,14.36
2022-07-26T09:56:13.977Z,14.48
2022-07-26T09:57:13.372Z,18.00
2022-07-26T09:58:13.507Z,25.12
2022-07-26T09:59:13.744Z,27.04
2022-07-26T10:00:13.973Z,21.56
2022-07-26T10:01:13.094Z,18.80
2022-07-26T10:02:13.097Z,12.20
2022-07-26T10:03:13.265Z,9.88
2022-07-26T10:04:13.994Z,16.40
2022-07-26T10:05:13.659Z,10.92
2022-07-26T10:06:13.519Z,10.24
2022-07-26T10:07:14.040Z,9.20
2022-07-26T10:08:13.029Z,12.60
2022-07-26T10:09:13.161Z,11.20
2022-07-26T10:10:13.396Z,12.40
2022-07-26T10:11:13.703Z,28.88
2022-07-26T10:12:13.633Z,42.16
2022-07-26T10:13:13.570Z,24.40
2022-07-26T10:14:13.685Z,19.28
2022-07-26T10:15:13.871Z,23.16
2022-07-26T10:16:13.879Z,17.40
2022-07-26T10:17:13.508Z,19.76
2022-07-26T10:18:16.755Z,19.44
2022-07-26T10:19:13.520Z,12.00
2022-07-26T10:20:17.634Z,11.16
2022-07-26T10:21:13.496Z,15.20
2022-07-26T10:22:13.652Z,14.12
2022-07-26T10:23:13.775Z,21.76
2022-07-26T10:24:14.058Z,24.04
2022-07-26T10:25:13.392Z,15.80
2022-07-26T10:26:13.409Z,21.24
2022-07-26T10:27:13.938Z,28.96
2022-07-26T10:28:12.862Z,26.28
2022-07-26T10:29:14.260Z,24.00
2022-07-26T10:30:13.268Z,25.32
2022-07-26T10:31:15.403Z,24.64
2022-07-26T10:32:13.882Z,17.72
2022-07-26T10:33:13.367Z,15.20
2022-07-26T10:34:13.894Z,14.32
2022-07-26T10:35:13.719Z,8.92
2022-07-26T10:36:14.009Z,14.28
2022-07-26T10:37:13.362Z,15.48
2022-07-26T10:38:13.610Z,14.16
2022-07-26T10:39:13.864Z,15.24
2022-07-26T10:40:14.566Z,9.96
2022-07-26T10:41:13.627Z,9.84
2022-07-26T10:42:13.728Z,4.56
2022-07-26T10:43:37.796Z,12.32
2022-07-26T10:44:14.588Z,16.36
2022-07-26T10:45:13.658Z,6.20
2022-07-26T10:46:13.646Z,5.04
2022-07-26T10:47:13.625Z,5.88
2022-07-26T10:48:13.591Z,6.52
2022-07-26T10:49:13.555Z,15.08
2022-07-26T10:50:14.053Z,18.84
2022-07-26T10:51:13.231Z,20.04
2022-07-26T10:52:13.450Z,14.64
2022-07-26T10:53:13.865Z,26.92
2022-07-26T10:54:15.081Z,30.48
2022-07-26T10:55:14.662Z,11.36
2022-07-26T10:56:14.259Z,14.52
2022-07-26T10:57:13.703Z,23.28
2022-07-26T10:58:13.920Z,21.96
2022-07-26T10:59:12.977Z,8.36
2022-07-26T11:00:12.924Z,9.64
2022-07-26T11:01:13.093Z,7.12
2022-07-26T11:02:13.371Z,7.76
2022-07-26T11:03:15.021Z,6.40
2022-07-26T11:04:13.670Z,7.44
2022-07-26T11:05:13.150Z,7.12
2022-07-26T11:06:13.609Z,14.56
2022-07-26T11:07:13.855Z,9.12
2022-07-26T11:08:13.760Z,9.84
2022-07-26T11:09:13.951Z,12.64
2022-07-26T11:10:13.180Z,19.04
2022-07-26T11:11:13.639Z,10.84
2022-07-26T11:12:14.712Z,11.36
2022-07-26T11:13:13.752Z,19.88
2022-07-26T11:14:14.458Z,20.40
2022-07-26T11:15:13.982Z,17.44
2022-07-26T11:16:22.783Z,11.28
2022-07-26T11:17:13.961Z,13.12
2022-07-26T11:18:13.384Z,8.36
2022-07-26T11:19:13.244Z,7.92
2022-07-26T11:20:13.433Z,14.88
2022-07-26T11:21:13.318Z,15.76
2022-07-26T11:22:14.898Z,9.44
2022-07-26T11:23:13.077Z,17.72
2022-07-26T11:24:13.577Z,17.48
2022-07-26T11:25:13.816Z,12.52
2022-07-26T11:26:13.799Z,8.04
2022-07-26T11:27:14.136Z,9.24
2022-07-26T11:28:13.440Z,18.40
2022-07-26T11:29:16.959Z,14.50
2022-07-26T11:30:13.744Z,9.80
2022-07-26T11:31:15.314Z,17.40
2022-07-26T11:32:17.889Z,24.44
2022-07-26T11:33:13.216Z,18.64
2022-07-26T11:34:13.604Z,3.04
2022-07-26T11:35:13.178Z,17.08
2022-07-26T11:36:13.735Z,18.12
2022-07-26T11:37:13.570Z,12.92
2022-07-26T11:38:14.039Z,11.40
2022-07-26T11:39:13.120Z,5.24
2022-07-26T11:40:13.317Z,14.64
2022-07-26T11:41:14.428Z,20.56
2022-07-26T11:42:13.654Z,23.84
2022-07-26T11:43:13.719Z,30.52
2022-07-26T11:44:14.073Z,27.44
2022-07-26T11:45:13.803Z,23.76
2022-07-26T11:46:14.052Z,15.44
2022-07-26T11:47:13.187Z,11.68
2022-07-26T11:48:13.171Z,9.80
2022-07-26T11:49:13.576Z,23.56
2022-07-26T11:50:18.630Z,31.32
2022-07-26T11:51:13.501Z,22.08
2022-07-26T11:52:13.789Z,29.96
2022-07-26T11:53:13.768Z,27.12
2022-07-26T11:54:14.017Z,21.04
2022-07-26T11:55:13.599Z,16.76
2022-07-26T11:56:13.631Z,24.28
2022-07-26T11:57:13.544Z,18.36
2022-07-26T11:58:13.519Z,15.04
2022-07-26T11:59:15.271Z,8.32
2022-07-26T12:00:13.447Z,8.60
2022-07-26T12:01:13.683Z,26.88
2022-07-26T12:02:20.268Z,24.12
2022-07-26T12:03:13.439Z,19.92
2022-07-26T12:04:14.145Z,21.44
2022-07-26T12:05:14.018Z,13.28
2022-07-26T12:06:13.171Z,17.20
2022-07-26T12:07:13.247Z,22.08
2022-07-26T12:08:13.293Z,15.44
2022-07-26T12:09:13.416Z,25.64
2022-07-26T12:10:13.370Z,21.84
2022-07-26T12:11:13.729Z,27.84
2022-07-26T12:12:13.587Z,14.68
2022-07-26T12:13:13.943Z,31.68
2022-07-26T12:14:18.335Z,25.00
2022-07-26T12:15:13.679Z,20.80
2022-07-26T12:16:14.101Z,25.40
2022-07-26T12:17:14.389Z,19.16
2022-07-26T12:18:13.615Z,24.60
2022-07-26T12:19:13.700Z,25.48
2022-07-26T12:20:13.780Z,23.16
2022-07-26T12:21:13.598Z,21.12
2022-07-26T12:22:15.448Z,25.00
2022-07-26T12:23:13.533Z,16.56
2022-07-26T12:24:14.009Z,12.52
2022-07-26T12:25:13.317Z,17.36
2022-07-26T12:26:13.418Z,21.24
2022-07-26T12:27:13.999Z,18.48
2022-07-26T12:28:12.945Z,14.08
2022-07-26T12:29:13.060Z,8.56
2022-07-26T12:30:14.092Z,17.32
2022-07-26T12:31:16.010Z,27.64
2022-07-26T12:32:13.417Z,25.64
2022-07-26T12:33:14.812Z,13.04
2022-07-26T12:34:13.202Z,8.92
2022-07-26T12:35:13.595Z,15.24
2022-07-26T12:36:13.912Z,22.00
2022-07-26T12:37:12.907Z,7.00
2022-07-26T12:38:22.654Z,6.16
2022-07-26T12:40:13.890Z,18.29
2022-07-26T12:41:13.858Z,6.68
2022-07-26T12:42:15.869Z,8.68
2022-07-26T12:43:13.362Z,6.40
2022-07-26T12:44:15.845Z,10.60
2022-07-26T12:45:13.267Z,7.32
2022-07-26T12:46:13.872Z,15.92
2022-07-26T12:47:14.309Z,23.24
2022-07-26T12:48:13.406Z,12.64
2022-07-26T12:49:13.440Z,17.00
2022-07-26T12:50:26.046Z,23.24
2022-07-26T12:51:18.466Z,14.92
2022-07-26T12:52:13.072Z,5.92
2022-07-26T12:53:14.718Z,2.16
2022-07-26T12:54:18.434Z,7.88
2022-07-26T12:55:14.975Z,10.28
2022-07-26T12:56:14.370Z,13.08
2022-07-26T12:57:21.545Z,25.39
2022-07-26T12:58:13.641Z,27.84
2022-07-26T12:59:17.799Z,26.04
2022-07-26T13:00:16.099Z,15.16
2022-07-26T13:01:13.380Z,23.88
2022-07-26T13:02:14.780Z,15.64
2022-07-26T13:03:16.624Z,15.76
2022-07-26T13:04:18.812Z,13.96
2022-07-26T13:05:14.878Z,6.60